Huvudsida
METAR-TAF:

METAR-TAF

Flygplatser :

Ivalo, Finland

Ivalos flygplats

latitud: 68-37N, longitud: 027-25E, höjd: 147 m

Aktuellt väderrapport

Denna rapport gjordes för 43 minuter sedan, klockan 10:20 UTC
Vind 2 kt från syd/sydost
Temperatur -16°C
Fuktighet 84%
Tryck 1008 hPa
Sikt 10 km eller mer
Inga moln under 1 500 m eller inga cumulonimbus

METAR: EFIV 171020Z 16002KT CAVOK M16/M18 Q1008

Tid: 13:03 (11:03 UTC)

Väderprognos

Denna rapport gjordes för 2 timmar och 25 minuter sedan, klockan 08:38 UTC
Prognos gäller från 17 kl. 09 UTC till 17 kl. 12 UTC
Vind 4 kt från väst/sydväst
Sikt 10 km eller mer
Inga moln under 1 500 m eller inga cumulonimbus

TAF: EFIV 170838Z 1709/1712 24004KT CAVOK

Aktuella väderrapporter och prognoser från 4000 flygplatser (METAR- och TAF-rapporter).

De tillgängliga stationerna syns som gula och röda prickar på kartan.

För musen över prickarna för att se namnen på stationerna.

Klicka sedan för att få väderrapporter och prognoser.

För att ändra kartan: Klicka på de gröna knapparna med ett svart kors på för att zooma in; den gröna knappen med ett streck på för att zooma ut; eller på de gröna pilarna för angränsande kartor.


METAR-TAF: